createdAt,value
2023-06-07T00:00:03.094Z,25.91
2023-06-07T00:02:44.182Z,26.14
2023-06-07T00:05:14.478Z,26.16
2023-06-07T00:07:43.318Z,25.97
2023-06-07T00:10:11.552Z,25.97
2023-06-07T00:12:40.183Z,26.17
2023-06-07T00:15:08.982Z,25.96
2023-06-07T00:17:39.120Z,25.88
2023-06-07T00:20:10.450Z,26.09
2023-06-07T00:22:39.724Z,26.15
2023-06-07T00:25:09.929Z,25.90
2023-06-07T00:27:37.864Z,26.10
2023-06-07T00:30:07.979Z,26.02
2023-06-07T00:32:36.100Z,26.12
2023-06-07T00:35:04.416Z,25.92
2023-06-07T00:37:32.236Z,26.14
2023-06-07T00:40:00.817Z,26.01
2023-06-07T00:42:29.055Z,26.12
2023-06-07T00:44:58.460Z,26.08
2023-06-07T00:47:27.673Z,25.77
2023-06-07T00:49:55.917Z,26.14
2023-06-07T00:52:24.132Z,25.89
2023-06-07T00:54:52.501Z,25.91
2023-06-07T00:57:22.468Z,26.08
2023-06-07T00:59:50.258Z,26.09
2023-06-07T01:02:18.394Z,25.88
2023-06-07T01:04:46.657Z,25.84
2023-06-07T01:07:18.875Z,26.04
2023-06-07T01:09:46.700Z,25.90
2023-06-07T01:12:17.294Z,26.08
2023-06-07T01:14:49.576Z,25.94
2023-06-07T01:17:19.537Z,26.08
2023-06-07T01:19:54.370Z,25.92
2023-06-07T01:22:29.095Z,26.07
2023-06-07T01:24:57.458Z,26.06
2023-06-07T01:27:28.722Z,26.07
2023-06-07T01:29:58.268Z,26.06
2023-06-07T01:32:27.553Z,25.90
2023-06-07T01:34:56.096Z,26.08
2023-06-07T01:37:26.067Z,25.88
2023-06-07T01:39:56.492Z,25.98
2023-06-07T01:42:25.201Z,25.92
2023-06-07T01:44:55.363Z,25.87
2023-06-07T01:47:23.636Z,25.83
2023-06-07T01:49:51.398Z,25.92
2023-06-07T01:52:19.167Z,25.98
2023-06-07T01:54:47.834Z,25.99
2023-06-07T01:57:30.790Z,26.04
2023-06-07T02:00:24.379Z,26.01
2023-06-07T02:03:17.897Z,25.99
2023-06-07T02:05:51.582Z,25.91
2023-06-07T02:08:35.718Z,26.00
2023-06-07T02:11:05.139Z,25.94
2023-06-07T02:13:41.039Z,26.00
2023-06-07T02:16:09.127Z,25.78
2023-06-07T02:18:42.239Z,25.68
2023-06-07T02:21:11.440Z,26.03
2023-06-07T02:23:39.699Z,25.90
2023-06-07T02:26:07.659Z,25.86
2023-06-07T02:28:35.708Z,25.79
2023-06-07T02:31:04.447Z,25.63
2023-06-07T02:33:32.317Z,25.88
2023-06-07T02:36:01.167Z,25.89
2023-06-07T02:38:29.144Z,25.99
2023-06-07T02:40:57.054Z,25.93
2023-06-07T02:43:26.530Z,25.99
2023-06-07T02:45:54.417Z,25.88
2023-06-07T02:48:23.642Z,26.01
2023-06-07T02:50:51.501Z,25.91
2023-06-07T02:53:19.916Z,25.75
2023-06-07T02:55:48.725Z,25.86
2023-06-07T02:58:16.849Z,25.74
2023-06-07T03:00:51.491Z,26.01
2023-06-07T03:03:20.991Z,25.90
2023-06-07T03:06:01.201Z,25.97
2023-06-07T03:08:33.633Z,25.89
2023-06-07T03:11:02.842Z,25.82
2023-06-07T03:13:35.434Z,25.89
2023-06-07T03:16:07.263Z,25.93
2023-06-07T03:18:43.329Z,25.82
2023-06-07T03:21:11.255Z,25.98
2023-06-07T03:23:39.974Z,25.92
2023-06-07T03:26:11.684Z,26.00
2023-06-07T03:28:40.105Z,25.89
2023-06-07T03:31:09.090Z,25.99
2023-06-07T03:33:46.247Z,25.82
2023-06-07T03:36:14.417Z,25.86
2023-06-07T03:38:46.397Z,25.76
2023-06-07T03:41:14.563Z,25.97
2023-06-07T03:43:42.659Z,25.90
2023-06-07T03:46:11.444Z,25.85
2023-06-07T03:48:39.631Z,25.76
2023-06-07T03:51:09.954Z,25.88
2023-06-07T03:53:43.133Z,25.98
2023-06-07T03:56:11.461Z,25.94
2023-06-07T03:58:40.034Z,25.93
2023-06-07T04:01:13.080Z,25.55
2023-06-07T04:03:41.403Z,25.89
2023-06-07T04:06:11.041Z,25.78
2023-06-07T04:08:40.053Z,25.82
2023-06-07T04:11:09.573Z,25.75
2023-06-07T04:13:38.248Z,25.84
2023-06-07T04:16:06.303Z,25.94
2023-06-07T04:18:34.093Z,25.77
2023-06-07T04:21:02.256Z,25.77
2023-06-07T04:23:34.766Z,25.79
2023-06-07T04:26:06.773Z,25.91
2023-06-07T04:28:36.127Z,25.77
2023-06-07T04:31:08.804Z,25.64
2023-06-07T04:33:38.771Z,25.86
2023-06-07T04:36:09.746Z,25.72
2023-06-07T04:38:57.489Z,25.82
2023-06-07T04:41:34.506Z,25.91
2023-06-07T04:44:06.730Z,25.77
2023-06-07T04:46:41.155Z,25.77
2023-06-07T04:49:18.616Z,25.98
2023-06-07T04:51:49.893Z,26.01
2023-06-07T04:54:19.378Z,25.66
2023-06-07T04:56:58.020Z,26.01
2023-06-07T04:59:36.341Z,25.91
2023-06-07T05:02:11.079Z,26.00
2023-06-07T05:04:39.649Z,25.85
2023-06-07T05:07:07.835Z,25.98
2023-06-07T05:09:39.849Z,25.83
2023-06-07T05:12:09.921Z,25.92
2023-06-07T05:14:38.582Z,25.93
2023-06-07T05:17:06.865Z,25.87
2023-06-07T05:19:36.146Z,25.73
2023-06-07T05:22:05.153Z,25.89
2023-06-07T05:24:35.188Z,25.89
2023-06-07T05:27:04.368Z,25.96
2023-06-07T05:29:32.586Z,25.97
2023-06-07T05:32:01.756Z,25.97
2023-06-07T05:34:31.375Z,25.83
2023-06-07T05:36:59.525Z,25.92
2023-06-07T05:39:29.747Z,25.94
2023-06-07T05:41:59.256Z,25.91
2023-06-07T05:44:27.165Z,25.76
2023-06-07T05:46:54.930Z,25.96
2023-06-07T05:49:25.251Z,25.78
2023-06-07T05:51:53.431Z,25.90
2023-06-07T05:54:24.288Z,25.96
2023-06-07T05:56:54.260Z,26.04
2023-06-07T05:59:22.445Z,25.68
2023-06-07T06:01:50.483Z,25.85
2023-06-07T06:04:18.882Z,25.83
2023-06-07T06:06:47.634Z,26.04
2023-06-07T06:09:15.396Z,25.87
2023-06-07T06:11:43.566Z,25.92
2023-06-07T06:14:11.853Z,25.86
2023-06-07T06:16:39.755Z,25.93
2023-06-07T06:19:07.632Z,25.76
2023-06-07T06:21:35.857Z,26.00
2023-06-07T06:24:04.242Z,26.00
2023-06-07T06:26:32.129Z,25.99
2023-06-07T06:29:01.935Z,25.74
2023-06-07T06:31:29.952Z,25.98
2023-06-07T06:34:00.353Z,25.67
2023-06-07T06:36:28.215Z,25.91
2023-06-07T06:38:56.538Z,25.91
2023-06-07T06:41:24.325Z,25.85
2023-06-07T06:43:52.724Z,25.75
2023-06-07T06:46:20.788Z,25.90
2023-06-07T06:49:02.739Z,25.67
2023-06-07T06:51:35.272Z,25.91
2023-06-07T06:54:03.298Z,25.94
2023-06-07T06:56:31.245Z,25.95
2023-06-07T06:58:59.026Z,25.87
2023-06-07T07:01:47.366Z,25.70
2023-06-07T07:04:17.448Z,25.92
2023-06-07T07:06:45.399Z,25.89
2023-06-07T07:09:13.895Z,25.93
2023-06-07T07:11:41.907Z,25.82
2023-06-07T07:14:09.897Z,25.90
2023-06-07T07:16:39.098Z,25.76
2023-06-07T07:19:07.393Z,25.95
2023-06-07T07:21:35.733Z,25.82
2023-06-07T07:24:04.803Z,25.86
2023-06-07T07:26:32.692Z,25.90
2023-06-07T07:29:00.993Z,25.66
2023-06-07T07:31:31.509Z,26.02
2023-06-07T07:33:59.455Z,25.96
2023-06-07T07:36:27.700Z,25.91
2023-06-07T07:38:56.395Z,26.01
2023-06-07T07:41:26.416Z,25.77
2023-06-07T07:43:54.178Z,25.47
2023-06-07T07:46:22.029Z,25.99
2023-06-07T07:48:49.836Z,25.69
2023-06-07T07:51:17.916Z,25.93
2023-06-07T07:53:45.737Z,25.96
2023-06-07T07:56:13.665Z,26.01
2023-06-07T07:58:41.349Z,25.94
2023-06-07T08:01:10.658Z,25.72
2023-06-07T08:03:38.757Z,26.05
2023-06-07T08:06:10.106Z,25.86
2023-06-07T08:08:39.231Z,25.99
2023-06-07T08:11:09.500Z,25.93
2023-06-07T08:13:37.802Z,25.72
2023-06-07T08:16:06.002Z,25.46
2023-06-07T08:18:33.858Z,25.44
2023-06-07T08:21:01.834Z,25.60
2023-06-07T08:23:29.762Z,25.54
2023-06-07T08:25:59.651Z,25.41
2023-06-07T08:28:30.172Z,25.51
2023-06-07T08:30:58.263Z,25.63
2023-06-07T08:33:28.573Z,25.69
2023-06-07T08:35:56.572Z,25.60
2023-06-07T08:38:24.450Z,25.50
2023-06-07T08:40:55.876Z,25.48
2023-06-07T08:43:24.966Z,25.48
2023-06-07T08:45:53.258Z,25.24
2023-06-07T08:48:22.311Z,25.20
2023-06-07T08:50:52.171Z,25.39
2023-06-07T08:53:35.502Z,25.43
2023-06-07T08:56:04.548Z,25.48
2023-06-07T08:58:33.194Z,25.39
2023-06-07T09:01:01.624Z,25.76
2023-06-07T09:03:30.054Z,25.67
2023-06-07T09:05:58.135Z,25.68
2023-06-07T09:08:26.034Z,25.79
2023-06-07T09:10:55.209Z,25.55
2023-06-07T09:13:23.463Z,25.94
2023-06-07T09:15:53.841Z,25.98
2023-06-07T09:18:22.137Z,25.79
2023-06-07T09:20:51.491Z,25.69
2023-06-07T09:23:21.277Z,25.91
2023-06-07T09:25:55.415Z,25.97
2023-06-07T09:28:23.307Z,25.91
2023-06-07T09:30:56.484Z,26.02
2023-06-07T09:33:31.845Z,26.06
2023-06-07T09:36:11.315Z,25.84
2023-06-07T09:38:39.713Z,25.65
2023-06-07T09:41:08.042Z,26.04
2023-06-07T09:43:49.161Z,25.87
2023-06-07T09:46:19.425Z,26.05
2023-06-07T09:48:54.465Z,26.10
2023-06-07T09:51:22.760Z,26.16
2023-06-07T09:53:58.697Z,26.17
2023-06-07T09:56:27.226Z,26.18
2023-06-07T09:59:12.376Z,25.85
2023-06-07T10:01:47.034Z,26.03
2023-06-07T10:04:15.928Z,25.99
2023-06-07T10:06:46.288Z,25.99
2023-06-07T10:09:18.082Z,25.98
2023-06-07T10:11:49.684Z,26.07
2023-06-07T10:14:21.850Z,26.15
2023-06-07T10:17:12.296Z,26.24
2023-06-07T10:19:47.103Z,26.24
2023-06-07T10:22:17.537Z,26.24
2023-06-07T10:25:05.674Z,26.04
2023-06-07T10:28:04.185Z,25.97
2023-06-07T10:30:35.342Z,25.87
2023-06-07T10:33:06.265Z,26.14
2023-06-07T10:35:35.378Z,25.31
2023-06-07T10:38:03.274Z,26.11
2023-06-07T10:40:32.870Z,25.93
2023-06-07T10:43:01.684Z,25.79
2023-06-07T10:45:30.023Z,26.08
2023-06-07T10:47:58.059Z,25.79
2023-06-07T10:50:29.076Z,26.11
2023-06-07T10:53:01.359Z,26.08
2023-06-07T10:55:32.985Z,25.98
2023-06-07T10:58:01.721Z,25.90
2023-06-07T11:00:31.837Z,26.08
2023-06-07T11:03:27.449Z,26.08
2023-06-07T11:05:58.729Z,26.14
2023-06-07T11:08:31.786Z,25.98
2023-06-07T11:11:03.248Z,26.15
2023-06-07T11:13:41.191Z,26.15
2023-06-07T11:16:24.503Z,26.15
2023-06-07T11:18:57.340Z,26.12
2023-06-07T11:21:29.714Z,26.12
2023-06-07T11:24:11.835Z,26.04
2023-06-07T11:26:42.183Z,26.07
2023-06-07T11:29:11.447Z,25.94
2023-06-07T11:32:03.191Z,25.99
2023-06-07T11:34:32.618Z,25.99
2023-06-07T11:37:17.895Z,26.21
2023-06-07T11:39:46.632Z,26.24
2023-06-07T11:42:17.612Z,26.11
2023-06-07T11:44:45.649Z,26.29
2023-06-07T11:47:13.515Z,25.96
2023-06-07T11:49:42.491Z,26.27
2023-06-07T11:52:10.832Z,26.32
2023-06-07T11:54:43.548Z,26.17
2023-06-07T11:57:11.562Z,26.14
2023-06-07T11:59:42.260Z,26.22
2023-06-07T12:02:10.260Z,26.02
2023-06-07T12:04:39.296Z,26.11
2023-06-07T12:07:33.846Z,26.17
2023-06-07T12:10:01.853Z,26.17
2023-06-07T12:12:29.842Z,26.18
2023-06-07T12:15:02.078Z,25.98
2023-06-07T12:17:36.070Z,26.26
2023-06-07T12:20:12.843Z,26.08
2023-06-07T12:22:40.659Z,26.26
2023-06-07T12:25:19.746Z,26.26
2023-06-07T12:27:48.678Z,26.19
2023-06-07T12:30:20.957Z,26.27
2023-06-07T12:32:51.421Z,26.28
2023-06-07T12:35:19.556Z,25.98
2023-06-07T12:37:47.380Z,26.28
2023-06-07T12:40:15.368Z,26.27
2023-06-07T12:42:43.519Z,26.13
2023-06-07T12:45:12.377Z,26.25
2023-06-07T12:47:42.128Z,25.98
2023-06-07T12:50:12.461Z,26.26
2023-06-07T12:52:40.727Z,26.12
2023-06-07T12:55:09.851Z,26.16
2023-06-07T12:57:37.782Z,26.04
2023-06-07T13:00:06.589Z,26.15
2023-06-07T13:02:35.930Z,26.18
2023-06-07T13:05:03.811Z,26.28
2023-06-07T13:07:32.063Z,26.27
2023-06-07T13:10:00.676Z,26.28
2023-06-07T13:12:28.853Z,26.29
2023-06-07T13:14:56.704Z,26.31
2023-06-07T13:17:26.202Z,26.17
2023-06-07T13:19:54.717Z,26.29
2023-06-07T13:22:22.858Z,26.34
2023-06-07T13:24:50.818Z,26.36
2023-06-07T13:27:18.704Z,26.36
2023-06-07T13:29:46.806Z,26.34
2023-06-07T13:32:15.203Z,26.19
2023-06-07T13:34:43.368Z,26.28
2023-06-07T13:37:11.158Z,26.42
2023-06-07T13:39:39.402Z,26.16
2023-06-07T13:42:07.593Z,26.13
2023-06-07T13:44:35.769Z,26.29
2023-06-07T13:47:04.013Z,26.40
2023-06-07T13:49:32.041Z,26.15
2023-06-07T13:51:59.939Z,26.26
2023-06-07T13:54:27.852Z,26.45
2023-06-07T13:56:55.747Z,26.21
2023-06-07T13:59:25.419Z,26.24
2023-06-07T14:01:54.215Z,26.35
2023-06-07T14:04:25.148Z,26.44
2023-06-07T14:06:53.314Z,26.30
2023-06-07T14:09:21.653Z,26.31
2023-06-07T14:11:50.440Z,26.45
2023-06-07T14:14:18.632Z,26.43
2023-06-07T14:16:46.523Z,26.44
2023-06-07T14:19:15.239Z,26.16
2023-06-07T14:21:43.196Z,26.34
2023-06-07T14:24:11.302Z,26.35
2023-06-07T14:26:39.206Z,26.43
2023-06-07T14:29:07.118Z,26.45
2023-06-07T14:31:35.100Z,26.47
2023-06-07T14:34:03.012Z,26.19
2023-06-07T14:36:31.205Z,26.12
2023-06-07T14:39:01.356Z,26.49
2023-06-07T14:41:29.286Z,26.43
2023-06-07T14:43:57.299Z,26.32
2023-06-07T14:46:25.355Z,26.47
2023-06-07T14:48:53.355Z,26.29
2023-06-07T14:51:24.634Z,26.01
2023-06-07T14:53:52.666Z,26.45
2023-06-07T14:56:20.556Z,26.26
2023-06-07T14:58:49.802Z,26.44
2023-06-07T15:01:18.577Z,26.44
2023-06-07T15:03:46.525Z,26.26
2023-06-07T15:06:14.530Z,26.44
2023-06-07T15:08:42.602Z,26.35
2023-06-07T15:11:10.674Z,26.45
2023-06-07T15:13:38.625Z,26.16
2023-06-07T15:16:06.591Z,26.24
2023-06-07T15:18:34.444Z,26.31
2023-06-07T15:21:02.290Z,26.40
2023-06-07T15:23:30.128Z,26.27
2023-06-07T15:26:01.151Z,26.32
2023-06-07T15:28:29.148Z,26.31
2023-06-07T15:30:57.005Z,26.03
2023-06-07T15:33:25.958Z,26.17
2023-06-07T15:35:53.908Z,26.03
2023-06-07T15:38:22.650Z,26.02
2023-06-07T15:40:50.533Z,26.06
2023-06-07T15:43:18.503Z,26.17
2023-06-07T15:45:48.160Z,26.20
2023-06-07T15:48:19.732Z,26.05
2023-06-07T15:50:48.071Z,26.29
2023-06-07T15:53:18.631Z,26.33
2023-06-07T15:55:47.162Z,26.19
2023-06-07T15:58:15.240Z,26.21
2023-06-07T16:00:47.477Z,26.26
2023-06-07T16:03:16.781Z,26.34
2023-06-07T16:05:44.775Z,26.27
2023-06-07T16:08:14.274Z,26.01
2023-06-07T16:10:44.173Z,26.35
2023-06-07T16:13:12.202Z,26.25
2023-06-07T16:15:40.044Z,26.24
2023-06-07T16:18:07.835Z,26.35
2023-06-07T16:20:35.894Z,26.37
2023-06-07T16:23:03.839Z,26.31
2023-06-07T16:25:35.745Z,26.29
2023-06-07T16:28:03.634Z,26.32
2023-06-07T16:30:31.925Z,26.13
2023-06-07T16:32:59.997Z,26.21
2023-06-07T16:35:28.074Z,25.94
2023-06-07T16:37:56.136Z,26.26
2023-06-07T16:40:24.581Z,26.19
2023-06-07T16:42:52.522Z,26.17
2023-06-07T16:45:20.786Z,26.36
2023-06-07T16:47:49.726Z,25.94
2023-06-07T16:50:17.876Z,26.28
2023-06-07T16:52:45.960Z,26.26
2023-06-07T16:55:14.244Z,26.19
2023-06-07T16:57:42.110Z,26.13
2023-06-07T17:00:10.641Z,26.13
2023-06-07T17:02:39.329Z,26.05
2023-06-07T17:05:07.964Z,26.18
2023-06-07T17:07:36.483Z,26.18
2023-06-07T17:10:04.932Z,26.16
2023-06-07T17:12:33.509Z,26.03
2023-06-07T17:15:01.570Z,25.93
2023-06-07T17:17:29.977Z,26.04
2023-06-07T17:19:58.189Z,26.10
2023-06-07T17:22:26.554Z,26.13
2023-06-07T17:24:56.451Z,26.18
2023-06-07T17:27:28.825Z,25.98
2023-06-07T17:29:56.647Z,26.00
2023-06-07T17:32:24.392Z,26.08
2023-06-07T17:34:53.631Z,26.09
2023-06-07T17:37:23.098Z,26.12
2023-06-07T17:39:53.280Z,26.03
2023-06-07T17:42:22.484Z,26.00
2023-06-07T17:44:53.370Z,26.10
2023-06-07T17:47:22.750Z,26.10
2023-06-07T17:49:50.752Z,26.08
2023-06-07T17:52:22.926Z,25.91
2023-06-07T17:54:51.779Z,26.06
2023-06-07T17:57:19.606Z,25.92
2023-06-07T17:59:47.387Z,26.11
2023-06-07T18:02:15.382Z,26.16
2023-06-07T18:04:43.152Z,26.09
2023-06-07T18:07:10.940Z,26.09
2023-06-07T18:09:40.577Z,25.97
2023-06-07T18:12:11.321Z,26.21
2023-06-07T18:14:41.480Z,26.08
2023-06-07T18:17:10.268Z,26.05
2023-06-07T18:19:39.070Z,26.24
2023-06-07T18:22:07.089Z,26.29
2023-06-07T18:24:34.820Z,26.19
2023-06-07T18:27:03.741Z,26.36
2023-06-07T18:29:34.021Z,26.36
2023-06-07T18:32:04.978Z,26.28
2023-06-07T18:34:35.087Z,25.83
2023-06-07T18:37:06.307Z,26.44
2023-06-07T18:39:34.757Z,26.47
2023-06-07T18:42:02.792Z,26.29
2023-06-07T18:44:32.087Z,26.46
2023-06-07T18:47:03.239Z,26.43
2023-06-07T18:49:31.691Z,26.22
2023-06-07T18:52:01.033Z,26.15
2023-06-07T18:54:29.120Z,26.28
2023-06-07T18:56:58.452Z,26.23
2023-06-07T18:59:26.539Z,26.30
2023-06-07T19:01:55.827Z,26.31
2023-06-07T19:04:25.423Z,26.31
2023-06-07T19:06:56.527Z,26.26
2023-06-07T19:09:24.347Z,26.36
2023-06-07T19:11:52.604Z,26.25
2023-06-07T19:14:20.570Z,26.15
2023-06-07T19:16:48.770Z,26.31
2023-06-07T19:19:16.756Z,26.04
2023-06-07T19:21:44.667Z,25.85
2023-06-07T19:24:12.885Z,26.08
2023-06-07T19:26:41.192Z,25.99
2023-06-07T19:29:09.117Z,26.10
2023-06-07T19:31:37.043Z,26.07
2023-06-07T19:34:07.022Z,26.13
2023-06-07T19:36:36.703Z,26.21
2023-06-07T19:39:04.567Z,26.09
2023-06-07T19:41:33.062Z,25.83
2023-06-07T19:44:01.006Z,26.16
2023-06-07T19:46:28.841Z,26.09
2023-06-07T19:48:58.421Z,25.96
2023-06-07T19:51:26.607Z,26.28
2023-06-07T19:53:57.951Z,26.30
2023-06-07T19:56:25.848Z,26.13
2023-06-07T19:58:53.623Z,26.05
2023-06-07T20:01:21.805Z,26.02
2023-06-07T20:03:49.707Z,26.10
2023-06-07T20:06:21.057Z,26.15
2023-06-07T20:09:08.331Z,26.23
2023-06-07T20:11:40.356Z,24.93
2023-06-07T20:14:09.646Z,26.20
2023-06-07T20:16:40.232Z,26.22
2023-06-07T20:19:32.316Z,25.74
2023-06-07T20:22:10.727Z,25.27
2023-06-07T20:24:48.827Z,25.99
2023-06-07T20:27:34.072Z,25.60
2023-06-07T20:31:07.405Z,25.88
2023-06-07T20:33:47.339Z,24.93
2023-06-07T20:36:32.022Z,25.45
2023-06-07T20:39:00.116Z,24.71
2023-06-07T20:41:34.937Z,25.15
2023-06-07T20:44:08.534Z,26.18
2023-06-07T20:46:37.151Z,24.90
2023-06-07T20:49:08.773Z,26.12
2023-06-07T20:51:40.730Z,26.22
2023-06-07T20:54:08.604Z,26.24
2023-06-07T20:56:36.484Z,26.06
2023-06-07T20:59:04.438Z,26.13
2023-06-07T21:01:34.774Z,26.18
2023-06-07T21:04:02.697Z,26.22
2023-06-07T21:06:30.880Z,26.20
2023-06-07T21:08:58.881Z,25.99
2023-06-07T21:11:26.985Z,26.19
2023-06-07T21:13:55.303Z,26.04
2023-06-07T21:16:23.157Z,26.10
2023-06-07T21:18:51.309Z,25.91
2023-06-07T21:21:19.252Z,26.18
2023-06-07T21:23:47.077Z,26.16
2023-06-07T21:26:15.146Z,25.98
2023-06-07T21:28:43.122Z,26.05
2023-06-07T21:31:12.053Z,26.14
2023-06-07T21:33:39.770Z,26.10
2023-06-07T21:36:07.726Z,26.04
2023-06-07T21:38:35.801Z,25.90
2023-06-07T21:41:03.588Z,25.86
2023-06-07T21:43:31.536Z,25.96
2023-06-07T21:45:59.399Z,25.99
2023-06-07T21:48:27.262Z,26.08
2023-06-07T21:50:55.879Z,26.04
2023-06-07T21:53:23.849Z,26.02
2023-06-07T21:55:51.719Z,25.92
2023-06-07T21:58:19.876Z,25.93
2023-06-07T22:00:49.738Z,25.71
2023-06-07T22:03:17.917Z,25.88
2023-06-07T22:05:45.845Z,25.93
2023-06-07T22:08:13.729Z,25.92
2023-06-07T22:10:42.830Z,25.88
2023-06-07T22:13:11.279Z,25.78
2023-06-07T22:15:41.097Z,25.96
2023-06-07T22:18:12.088Z,25.91
2023-06-07T22:20:41.552Z,25.90
2023-06-07T22:23:09.942Z,25.88
2023-06-07T22:25:41.461Z,25.89
2023-06-07T22:28:14.009Z,25.74
2023-06-07T22:30:42.517Z,25.72
2023-06-07T22:33:10.522Z,25.67
2023-06-07T22:35:41.255Z,25.89
2023-06-07T22:38:13.712Z,25.79
2023-06-07T22:40:43.232Z,25.85
2023-06-07T22:43:13.372Z,25.78
2023-06-07T22:45:42.790Z,25.72
2023-06-07T22:48:12.445Z,25.83
2023-06-07T22:50:44.391Z,25.89
2023-06-07T22:53:14.007Z,25.76
2023-06-07T22:55:42.542Z,25.70
2023-06-07T22:58:10.943Z,25.88
2023-06-07T23:00:40.641Z,25.47
2023-06-07T23:03:09.098Z,25.74
2023-06-07T23:05:38.388Z,25.85
2023-06-07T23:08:08.422Z,25.92
2023-06-07T23:10:38.377Z,25.89
2023-06-07T23:13:09.844Z,25.93
2023-06-07T23:15:43.393Z,25.76
2023-06-07T23:18:12.954Z,25.82
2023-06-07T23:21:08.861Z,25.95
2023-06-07T23:23:36.791Z,25.94
2023-06-07T23:26:06.360Z,25.84
2023-06-07T23:28:35.753Z,25.87
2023-06-07T23:31:04.434Z,25.98
2023-06-07T23:33:32.702Z,25.80
2023-06-07T23:36:02.238Z,25.80
2023-06-07T23:38:32.210Z,25.86
2023-06-07T23:41:02.212Z,25.96
2023-06-07T23:43:30.159Z,26.04
2023-06-07T23:45:58.807Z,25.89
2023-06-07T23:48:28.788Z,26.03
2023-06-07T23:50:56.636Z,26.03
2023-06-07T23:53:24.438Z,26.05
2023-06-07T23:55:54.183Z,25.95
2023-06-07T23:58:22.366Z,26.02
